Time;durP1;ratioP1;P1;durP2;ratioP2;P2;SDS_P1;SDS_P2;PMS_P1;PMS_P2;Temp;Humidity;BMP_temperature;BMP_pressure;BME280_temperature;BME280_humidity;BME280_pressure;Samples;Min_cycle;Max_cycle;Signal;HPM_P1;HPM_P2
2023/05/14 00:00:52;;;;;;;12.9;7.3;;;;;;;7.1;79.3;99150;;;;
2023/05/14 00:10:53;;;;;;;19.5;9.8;;;;;;;7;79.3;99150;;;;
2023/05/14 00:21:52;;;;;;;19.5;9.8;;;;;;;6.9;80.7;99150;;;;
2023/05/14 00:32:52;;;;;;;15.5;8.6;;;;;;;6.8;81.5;99150;;;;
2023/05/14 00:42:52;;;;;;;15.5;8.6;;;;;;;6.8;81.4;99140;;;;
2023/05/14 00:52:52;;;;;;;15.5;8.6;;;;;;;6.7;80.6;99150;;;;
2023/05/14 01:02:52;;;;;;;11.6;6;;;;;;;6.5;80;99160;;;;
2023/05/14 01:12:52;;;;;;;11.6;6;;;;;;;6.4;81.2;99160;;;;
2023/05/14 01:22:52;;;;;;;11.6;6;;;;;;;6.3;82.1;99160;;;;
2023/05/14 01:33:52;;;;;;;14.6;7.1;;;;;;;6.2;82.5;99160;;;;
2023/05/14 01:44:52;;;;;;;14.6;7.1;;;;;;;6.1;82.1;99150;;;;
2023/05/14 01:54:52;;;;;;;14.6;7.1;;;;;;;5.9;83;99150;;;;
2023/05/14 02:04:52;;;;;;;14.2;6.9;;;;;;;5.8;83;99140;;;;
2023/05/14 02:14:52;;;;;;;14.2;6.9;;;;;;;5.7;83.8;99130;;;;
2023/05/14 02:25:52;;;;;;;14.2;6.9;;;;;;;5.6;84.5;99130;;;;
2023/05/14 02:35:52;;;;;;;9.5;5.3;;;;;;;5.5;84.1;99120;;;;
2023/05/14 02:46:52;;;;;;;9.5;5.3;;;;;;;5.3;84.2;99100;;;;
2023/05/14 02:57:52;;;;;;;9.5;5.3;;;;;;;5.3;84.8;99100;;;;
2023/05/14 03:07:52;;;;;;;10.3;6.3;;;;;;;5.3;85.7;99100;;;;
2023/05/14 03:17:52;;;;;;;10.3;6.3;;;;;;;5.6;87.6;99090;;;;
2023/05/14 03:27:52;;;;;;;10.3;6.3;;;;;;;5.9;88.5;99100;;;;
2023/05/14 03:38:52;;;;;;;11.9;6.6;;;;;;;6.1;87.8;99110;;;;
2023/05/14 03:49:52;;;;;;;11.9;6.6;;;;;;;6.3;87.2;99100;;;;
2023/05/14 03:59:52;;;;;;;11.9;6.6;;;;;;;6.6;86.7;99090;;;;
2023/05/14 04:09:52;;;;;;;9.6;5;;;;;;;6.8;85.9;99080;;;;
2023/05/14 04:20:52;;;;;;;9.6;5;;;;;;;7;85.3;99090;;;;
2023/05/14 04:30:52;;;;;;;9.6;5;;;;;;;7.4;84.9;99090;;;;
2023/05/14 04:40:52;;;;;;;13;6.3;;;;;;;7.6;84.6;99090;;;;
2023/05/14 04:50:52;;;;;;;13;6.3;;;;;;;8.1;83.9;99100;;;;
2023/05/14 05:01:52;;;;;;;11.2;7.1;;;;;;;8.5;83.2;99090;;;;
2023/05/14 05:11:52;;;;;;;11.2;7.1;;;;;;;8.9;81.8;99090;;;;
2023/05/14 05:21:52;;;;;;;11.2;7.1;;;;;;;9.4;80.8;99090;;;;
2023/05/14 05:31:52;;;;;;;9.9;7.3;;;;;;;9.8;80;99070;;;;
2023/05/14 05:42:52;;;;;;;9.9;7.3;;;;;;;10.3;78.3;99070;;;;
2023/05/14 05:52:52;;;;;;;9.9;7.3;;;;;;;10.8;77.1;99060;;;;
2023/05/14 06:02:52;;;;;;;11.8;7.1;;;;;;;11.2;75.5;99060;;;;
2023/05/14 06:12:52;;;;;;;11.8;7.1;;;;;;;11.7;74.4;99050;;;;
2023/05/14 06:23:52;;;;;;;11.8;7.1;;;;;;;12.4;72.8;99060;;;;
2023/05/14 06:34:52;;;;;;;8.3;5.6;;;;;;;13.1;69.9;99040;;;;
2023/05/14 06:44:53;;;;;;;8.3;5.6;;;;;;;13.8;67.3;99030;;;;
2023/05/14 06:54:52;;;;;;;8.3;5.6;;;;;;;14.3;66.1;99030;;;;
2023/05/14 07:04:52;;;;;;;8;4.9;;;;;;;14.6;62.5;99040;;;;
2023/05/14 07:15:54;;;;;;;8;4.9;;;;;;;15.2;60.5;99030;;;;
2023/05/14 07:25:52;;;;;;;8;4.9;;;;;;;15.8;62.1;99050;;;;
2023/05/14 07:36:52;;;;;;;5.8;4.1;;;;;;;16.1;58.7;99040;;;;
2023/05/14 07:46:52;;;;;;;5.8;4.1;;;;;;;16.3;60.2;99020;;;;
2023/05/14 07:57:52;;;;;;;5.8;4.1;;;;;;;16.7;57.4;99010;;;;
2023/05/14 08:07:52;;;;;;;7.2;4.7;;;;;;;17.1;57.3;98990;;;;
2023/05/14 08:17:52;;;;;;;7.2;4.7;;;;;;;17.4;55.8;98980;;;;
2023/05/14 08:27:53;;;;;;;7.2;4.7;;;;;;;17.7;55.7;98970;;;;
2023/05/14 08:38:52;;;;;;;6.2;3.8;;;;;;;17.8;56.3;98970;;;;
2023/05/14 08:49:52;;;;;;;6.2;3.8;;;;;;;18;57.4;98960;;;;
2023/05/14 09:00:52;;;;;;;6.2;3.8;;;;;;;18.1;54.9;98960;;;;
2023/05/14 09:11:52;;;;;;;8.7;4;;;;;;;18.2;55.5;98940;;;;
2023/05/14 09:21:52;;;;;;;8.7;4;;;;;;;18.3;54.9;98930;;;;
2023/05/14 09:32:52;;;;;;;4.5;2.5;;;;;;;18.7;54.7;98920;;;;
2023/05/14 09:43:52;;;;;;;4.5;2.5;;;;;;;18.7;53.4;98910;;;;
2023/05/14 09:53:53;;;;;;;4.5;2.5;;;;;;;19.2;53;98900;;;;
2023/05/14 10:03:52;;;;;;;3.8;2;;;;;;;19.3;52.3;98890;;;;
2023/05/14 10:14:52;;;;;;;3.8;2;;;;;;;19.6;49.7;98870;;;;
2023/05/14 10:24:52;;;;;;;3.8;2;;;;;;;20;50.7;98860;;;;
2023/05/14 10:35:53;;;;;;;3.5;1.6;;;;;;;20.4;49.6;98830;;;;
2023/05/14 10:45:52;;;;;;;3.5;1.6;;;;;;;20.9;49.2;98820;;;;
2023/05/14 10:55:52;;;;;;;3.5;1.6;;;;;;;21.1;49;98800;;;;
2023/05/14 11:06:52;;;;;;;4.3;1.7;;;;;;;21.2;48.5;98790;;;;
2023/05/14 11:17:52;;;;;;;4.3;1.7;;;;;;;21.4;48.3;98760;;;;
2023/05/14 11:28:52;;;;;;;4.3;1.7;;;;;;;21.5;46.6;98760;;;;
2023/05/14 11:38:52;;;;;;;3.8;2.2;;;;;;;21.7;47.3;98760;;;;
2023/05/14 11:48:52;;;;;;;3.8;2.2;;;;;;;22;46.2;98750;;;;
2023/05/14 11:58:52;;;;;;;3.8;2.2;;;;;;;22.3;47.3;98740;;;;
2023/05/14 12:08:52;;;;;;;5.8;1.9;;;;;;;21.9;45.7;98730;;;;
2023/05/14 12:19:52;;;;;;;5.8;1.9;;;;;;;22.4;45;98700;;;;
2023/05/14 12:30:53;;;;;;;5.8;1.9;;;;;;;21.6;46.7;98680;;;;
2023/05/14 12:41:52;;;;;;;3.5;1.7;;;;;;;21.9;45;98660;;;;
2023/05/14 12:52:52;;;;;;;3.5;1.7;;;;;;;21.9;44.6;98660;;;;
2023/05/14 13:02:52;;;;;;;4.1;1.7;;;;;;;22.3;45;98660;;;;
2023/05/14 13:13:52;;;;;;;4.1;1.7;;;;;;;22.3;43.7;98650;;;;
2023/05/14 13:24:52;;;;;;;4.1;1.7;;;;;;;22.3;45.4;98640;;;;
2023/05/14 13:34:52;;;;;;;3.5;1.6;;;;;;;22.2;44.7;98640;;;;
2023/05/14 13:44:52;;;;;;;3.5;1.6;;;;;;;21.9;44.9;98620;;;;
2023/05/14 13:54:52;;;;;;;3.5;1.6;;;;;;;21.6;45.5;98600;;;;
2023/05/14 14:05:52;;;;;;;4.5;1.8;;;;;;;21.5;46.4;98580;;;;
2023/05/14 14:16:52;;;;;;;4.5;1.8;;;;;;;20.8;46.1;98560;;;;
2023/05/14 14:27:52;;;;;;;4.5;1.8;;;;;;;20.6;46;98560;;;;
2023/05/14 14:37:52;;;;;;;4.9;2.2;;;;;;;20.3;46.6;98550;;;;
2023/05/14 14:47:53;;;;;;;4.9;2.2;;;;;;;20.2;47.2;98530;;;;
2023/05/14 14:58:52;;;;;;;4.9;2.2;;;;;;;19.9;48.2;98520;;;;
2023/05/14 15:09:52;;;;;;;3.7;1.9;;;;;;;19.9;47.8;98500;;;;
2023/05/14 15:19:52;;;;;;;3.7;1.9;;;;;;;19.8;47.7;98490;;;;
2023/05/14 15:30:52;;;;;;;3.7;1.9;;;;;;;19.7;48.5;98500;;;;
2023/05/14 15:40:52;;;;;;;3.6;1.7;;;;;;;19.6;49.8;98500;;;;
2023/05/14 15:50:52;;;;;;;3.6;1.7;;;;;;;19.3;50.9;98490;;;;
2023/05/14 16:00:52;;;;;;;3.6;1.7;;;;;;;19.2;51.6;98470;;;;
2023/05/14 16:10:52;;;;;;;3.9;2;;;;;;;19.2;51.8;98460;;;;
2023/05/14 16:21:52;;;;;;;3.9;2;;;;;;;18.9;52.7;98450;;;;
2023/05/14 16:32:52;;;;;;;6.6;3.3;;;;;;;18.9;53.3;98450;;;;
2023/05/14 16:42:52;;;;;;;6.6;3.3;;;;;;;18.6;54.4;98440;;;;
2023/05/14 16:52:52;;;;;;;6.6;3.3;;;;;;;18.5;54.6;98440;;;;
2023/05/14 17:02:53;;;;;;;7.1;3.5;;;;;;;18.3;55.4;98430;;;;
2023/05/14 17:12:52;;;;;;;7.1;3.5;;;;;;;18.1;56.2;98420;;;;
2023/05/14 17:22:52;;;;;;;7.1;3.5;;;;;;;17.9;57.7;98420;;;;
2023/05/14 17:32:52;;;;;;;9.4;3.7;;;;;;;17.7;59.9;98400;;;;
2023/05/14 17:43:52;;;;;;;9.4;3.7;;;;;;;17.3;62.7;98400;;;;
2023/05/14 17:53:51;;;;;;;9.4;3.7;;;;;;;16.9;65.9;98410;;;;
2023/05/14 18:03:52;;;;;;;8.6;4.8;;;;;;;16.3;66.7;98410;;;;
2023/05/14 18:14:51;;;;;;;8.6;4.8;;;;;;;15.8;68.3;98390;;;;
2023/05/14 18:24:51;;;;;;;8.6;4.8;;;;;;;15.6;69.2;98400;;;;
2023/05/14 18:34:51;;;;;;;5.6;2.3;;;;;;;15.6;70;98400;;;;
2023/05/14 18:44:51;;;;;;;5.6;2.3;;;;;;;15.3;71.7;98430;;;;
2023/05/14 18:54:53;;;;;;;5.6;2.3;;;;;;;15.1;73.9;98430;;;;
2023/05/14 19:04:52;;;;;;;5.9;3.3;;;;;;;15.1;73.8;98430;;;;
2023/05/14 19:14:51;;;;;;;5.9;3.3;;;;;;;15;75.1;98450;;;;
2023/05/14 19:25:51;;;;;;;5.9;3.3;;;;;;;14.8;73.8;98460;;;;
2023/05/14 19:35:51;;;;;;;18.1;14;;;;;;;14.8;73.8;98460;;;;
2023/05/14 19:45:51;;;;;;;18.1;14;;;;;;;14.7;74.1;98460;;;;
2023/05/14 19:55:51;;;;;;;18.1;14;;;;;;;14.5;76.9;98460;;;;
2023/05/14 20:06:52;;;;;;;8.8;6.9;;;;;;;14.4;76.7;98440;;;;
2023/05/14 20:16:51;;;;;;;8.8;6.9;;;;;;;14.3;77.8;98400;;;;
2023/05/14 20:26:52;;;;;;;8.8;6.9;;;;;;;14.3;78.9;98380;;;;
2023/05/14 20:36:51;;;;;;;8.8;4.7;;;;;;;14.2;79;98350;;;;
2023/05/14 20:47:51;;;;;;;8.8;4.7;;;;;;;13.8;81.2;98320;;;;
2023/05/14 20:57:51;;;;;;;8.8;4.7;;;;;;;13.6;81.7;98290;;;;
2023/05/14 21:07:51;;;;;;;7.3;3.6;;;;;;;13.4;82.3;98260;;;;
2023/05/14 21:17:51;;;;;;;7.3;3.6;;;;;;;13.3;82.9;98240;;;;
2023/05/14 21:28:51;;;;;;;7.3;3.6;;;;;;;13.2;83.7;98240;;;;
2023/05/14 21:38:51;;;;;;;7.3;3.8;;;;;;;13.1;83.9;98240;;;;
2023/05/14 21:49:51;;;;;;;7.3;3.8;;;;;;;12.9;84;98210;;;;
2023/05/14 22:00:51;;;;;;;7.3;3.8;;;;;;;13;83.6;98220;;;;
2023/05/14 22:10:51;;;;;;;8.4;3.4;;;;;;;12.9;84;98190;;;;
2023/05/14 22:21:51;;;;;;;8.4;3.4;;;;;;;12.9;84.3;98170;;;;
2023/05/14 22:31:51;;;;;;;4.2;2.4;;;;;;;12.8;84.7;98170;;;;
2023/05/14 22:41:53;;;;;;;4.2;2.4;;;;;;;12.8;84.8;98180;;;;
2023/05/14 22:51:53;;;;;;;4.2;2.4;;;;;;;12.8;85.1;98160;;;;
2023/05/14 23:02:51;;;;;;;3.8;2.2;;;;;;;12.7;85.5;98160;;;;
2023/05/14 23:12:51;;;;;;;3.8;2.2;;;;;;;12.6;86.4;98160;;;;
2023/05/14 23:22:52;;;;;;;3.8;2.2;;;;;;;12.6;86.9;98120;;;;
2023/05/14 23:33:51;;;;;;;4.4;2.3;;;;;;;12.5;87.5;98110;;;;
2023/05/14 23:44:51;;;;;;;4.4;2.3;;;;;;;12.5;87.6;98090;;;;
2023/05/14 23:55:51;;;;;;;4.4;2.3;;;;;;;12.5;87.8;98080;;;;
